Appleton, Colorado
Current Conditions -  °F | °C
As of 5:53 PM on Thursday 18 Dec 2014 (Local Time) from KGJT Reporting Station
Overcast Overcast  
Wind Chill:   Ceiling: 3300
Heat Index:   Visibility: 10mi
Dew Point: -1°   Wind: 3mph
Humidity: 82%   Direction: 340°NNW
Pressure: 30.15"   Gusts: NA
Location:  39.1857°N, 108.6°W
Report Text: KGJT 190053Z 34003KT 10SM OVC033 02/M01 A3015 RMK AO2 SLP218 T00221006
Loading
Personal Weather Stations






























Interactive Weather Map New forecast layout! Learn more

10-Day Weather Forecast

Advertisements
Track Severe Weather on mobile